チタ の空港の天気 - METARとTAF

チタ・カダラ空港 ( UIAA / HTA ) - ロシア チタ
飛行場実況気象(Metar)
観測時間11/15 02:00 YAKT (11/14 17:00 UTC)
風向・風速南西 3m/s
視程10km以上
天気現象
なし
気温-15℃
湿度72%
気圧1025hPa
METARUIAA 141700Z AUTO 22003MPS 9999 NCD M15/M19 Q1025 RMK QFE710/0947
過去の天気等 Google飛行場航空写真 Wunderground天気予報

過去48時間のMETAR

飛行場予報(TAF)
発表時間: 11/15 02:00 YAKT (11/14 17:00 UTC)
予報対象時間: 15日3時 YAKT ~ 16日3時 YAKT
風向・風速西 3m/s 瞬間風速 8m/s
視程10km以上
なし
TAF UIAA 141700Z 1418/1518 26003G08MPS 9999 NSC